Latest Coastal Weather Observations for Onslow Airport

IDW60701

Issued at 11:12 am WST Wednesday 1 April 2015 (issued every 10 minutes, with the page automatically refreshed every 10 minutes)

About coastal observations | Map of coastal stations | Coastal observations for WA | Marine services | Other Formats
Station Details ID: 005017 Name: ONSLOW AIRPORT Lat: -21.67 Lon: 115.11 Height: 10.5 m
Data from the previous 72 hours. | See also: Recent months at Onslow Airport
Date/Time
WST
Temp

°C
Wind Pressure Rain
since 9am
mm
Weather Cloud Vis
km
Sea
Height
m
Swell
Dir
 
Speed
knots
Gust
knots
hPa Trend Height
m
Period
s
Dir
01/11:00am 29.3 SSE 5 7 1014.7 - 0.0 - - - - - - -
01/10:30am 28.7 SSE 7 8 1015.1 - 0.0 - - - - - - -
01/10:00am 28.1 S 8 11 1015.4 - 0.0 - - - - - - -
01/09:30am 26.8 SSW 9 11 1015.6 - 0.0 - - - - - - -
01/09:00am 26.7 S 7 10 1015.6 - 0.2 - - - - - - -
01/08:30am 26.3 S 9 10 1015.5 - 0.2 - - - - - - -
01/08:00am 25.2 SSW 9 11 1015.2 - 0.2 - - - - - - -
01/07:30am 24.9 SSW 8 10 1014.7 - 0.2 - - - - - - -
01/07:00am 24.5 SSW 6 8 1014.3 - 0.2 - - - - - - -
01/06:30am 24.0 SSW 6 7 1014.3 - 0.2 - - - - - - -
01/06:00am 23.7 SSW 6 8 1014.1 - 0.2 - - - - - - -
01/05:30am 23.9 SSW 6 7 1014.1 - 0.2 - - - - - - -
01/05:00am 23.9 SSW 7 8 1014.0 - 0.2 - - - - - - -
01/04:30am 23.9 SSW 7 9 1013.8 - 0.2 - - - - - - -
01/04:00am 24.1 SSW 7 9 1013.7 - 0.2 - - - - - - -
01/03:30am 24.0 S 7 9 1013.6 - 0.2 - - - - - - -
01/03:00am 24.4 SSW 8 10 1013.9 - 0.2 - - - - - - -
01/02:30am 24.5 S 8 10 1013.7 - 0.2 - - - - - - -
01/02:00am 24.6 SSW 7 9 1013.6 - 0.2 - - - - - - -
01/01:30am 25.0 SSW 8 11 1013.8 - 0.2 - - - - - - -
01/01:00am 25.0 SSW 9 10 1014.0 - 0.2 - - - - - - -
01/12:30am 25.3 SSW 10 12 1014.1 - 0.2 - - - - - - -
01/12:00am 25.5 SSW 9 12 1014.3 - 0.2 - - - - - - -
 
Date/Time
WST
Temp

°C
Wind Pressure Rain
since 9am
mm
Weather Cloud Vis
km
Sea
Height
m
Swell
Dir
 
Speed
knots
Gust
knots
hPa Trend Height
m
Period
s
Dir
31/11:30pm 25.9 SSW 11 14 1014.4 - 0.2 - - - - - - -
31/11:00pm 26.2 SSW 8 11 1014.7 - 0.2 - - - - - - -
31/10:30pm 26.5 SSW 9 11 1014.6 - 0.2 - - - - - - -
31/10:00pm 26.8 SSW 8 9 1014.6 - 0.2 - - - - - - -
31/09:30pm 27.0 SSW 9 11 1014.7 - 0.2 - - - - - - -
31/09:00pm 27.1 SSW 9 10 1014.4 - 0.2 - - - - - - -
31/08:30pm 27.3 SSW 7 8 1014.0 - 0.2 - - - - - - -
31/08:00pm 27.7 SSW 7 9 1013.9 - 0.2 - - - - - - -
31/07:30pm 28.0 S 7 8 1013.7 - 0.2 - - - - - - -
31/07:00pm 27.9 SSE 8 9 1013.3 - 0.2 - - - - - - -
31/06:30pm 28.4 SSE 9 11 1013.1 - 0.2 - - - - - - -
31/06:00pm 29.4 SSE 10 13 1012.8 - 0.2 - - - - - - -
31/05:30pm 29.5 S 4 7 1012.7 - 0.2 - - - - - - -
31/05:00pm 28.9 SSE 7 12 1012.4 - 0.2 - - - - - - -
31/04:30pm 29.5 WNW 11 14 1012.2 - 0.2 - - - - - - -
31/04:00pm 30.6 WNW 11 14 1012.3 - 0.2 - - - - - - -
31/03:30pm 30.0 WNW 9 12 1012.2 - 0.2 - - - - - - -
31/03:00pm 30.4 NW 9 11 1012.1 - 0.2 - - - - - - -
31/02:30pm 30.5 WNW 9 12 1012.1 - 0.2 - - - - - - -
31/02:00pm 30.5 WNW 9 11 1012.3 - 0.2 - - - - - - -
31/01:30pm 30.7 NW 9 11 1012.4 - 0.2 - - - - - - -
31/01:00pm 30.5 NNW 9 12 1012.8 - 0.2 - - - - - - -
31/12:30pm 29.3 NNW 8 11 1013.1 - 0.2 - - - - - - -
31/12:00pm 30.3 NNW 7 11 1013.5 - 0.2 - - - - - - -
31/11:30am 30.0 NNW 9 12 1013.8 - 0.2 - - - - - - -
31/11:00am 26.9 N 11 16 1014.4 - 0.2 - - - - - - -
31/10:30am 28.9 ENE 5 8 1014.3 - 0.2 - - - - - - -
31/10:00am 28.1 ENE 7 9 1014.4 - 0.2 - - - - - - -
31/09:30am 26.2 E 8 9 1014.7 - 0.2 - - - - - - -
31/09:00am 25.1 E 10 11 1014.6 - 106.0 - - - - - - -
31/08:30am 24.8 E 9 11 1014.3 - 106.0 - - - - - - -
31/08:00am 24.5 ESE 8 9 1014.1 - 106.0 - - - - - - -
31/07:30am 24.1 E 9 11 1013.7 - 106.0 - - - - - - -
31/07:00am 23.7 E 9 11 1013.5 - 106.0 - - - - - - -
31/06:30am 23.5 ESE 6 7 1013.2 - 105.8 - - - - - - -
31/06:00am 23.5 E 7 8 1013.0 - 105.8 - - - - - - -
31/05:30am 23.8 E 6 8 1012.9 - 105.8 - - - - - - -
31/05:00am 23.8 SE 5 6 1012.7 - 105.8 - - - - - - -
31/04:30am 23.8 SSE 5 6 1012.6 - 105.8 - - - - - - -
31/04:00am 23.7 E 7 8 1012.4 - 105.8 - - - - - - -
31/03:30am 23.7 E 11 13 1012.6 - 105.8 - - - - - - -
31/03:00am 23.4 ESE 7 8 1012.8 - 105.8 - - - - - - -
31/02:30am 23.1 ESE 9 11 1012.8 - 105.8 - - - - - - -
31/02:00am 23.1 ESE 8 10 1013.0 - 105.8 - - - - - - -
31/01:30am 23.1 SE 6 7 1013.3 - 105.8 - - - - - - -
31/01:00am 23.4 NE 3 5 1013.8 - 105.2 - - - - - - -
31/12:30am 23.6 N 7 9 1014.7 - 103.6 - - - - - - -
31/12:00am 23.6 SE 9 11 1013.8 - 102.8 Recent precip. - - - - - -
 
Date/Time
WST
Temp

°C
Wind Pressure Rain
since 9am
mm
Weather Cloud Vis
km
Sea
Height
m
Swell
Dir
 
Speed
knots
Gust
knots
hPa Trend Height
m
Period
s
Dir
30/11:30pm 23.7 ESE 10 12 1013.7 - 102.6 - - - - - - -
30/11:00pm 23.8 SE 11 13 1013.9 - 102.6 - - - - - - -
30/10:30pm 23.7 SE 11 16 1013.9 - 102.6 - - - - - - -
30/10:00pm 23.4 ESE 11 13 1014.5 - 102.6 - - - - - - -
30/09:30pm 23.4 SSE 9 11 1014.5 - 102.6 - - - - - - -
30/09:00pm 23.6 ESE 10 11 1014.4 - 102.6 - - - - - - -
30/08:30pm 23.8 ESE 10 13 1014.6 - 102.6 - - - - - - -
30/08:00pm 23.6 ESE 10 13 1014.4 - 102.6 - - - - - - -
30/07:30pm 23.9 ESE 9 11 1013.7 - 102.6 - - - - - - -
30/07:00pm 23.9 W 7 12 1013.0 - 102.4 - - - - - - -
30/06:30pm 23.6 NNW 13 19 1013.5 - 101.0 - - - - - - -
30/06:15pm 23.4 NNW 15 25 1013.9 - 98.8 - - - - - - -
30/06:00pm 23.0 NW 17 22 1013.7 - 92.2 Showers - - - - - -
30/05:50pm 23.3 ESE 11 24 1014.2 - 83.0 - - - - - - -
30/05:30pm 23.0 SE 7 8 1013.1 - 79.8 - - - - - - -
30/05:00pm 23.4 E 10 12 1012.2 - 75.8 - - - - - - -
30/04:30pm 25.3 NE 14 21 1011.7 - 73.4 - - - - - - -
30/04:00pm 24.2 NNE 12 16 1011.9 - 73.4 - - - - - - -
30/03:30pm 23.9 NE 13 16 1011.6 - 72.2 - - - - - - -
30/03:00pm 23.9 E 6 11 1011.9 - 71.0 Rain - - - - - -
30/02:30pm 23.9 SE 10 13 1012.2 - 70.4 - - - - - - -
30/02:00pm 24.3 S 14 18 1012.0 - 39.6 - - - - - - -
30/01:30pm 25.4 SSE 14 16 1011.6 - 21.0 - - - - - - -
30/01:00pm 25.2 SE 13 15 1011.9 - 20.6 - - - - - - -
30/12:30pm 25.1 SE 14 16 1012.2 - 20.6 - - - - - - -
30/12:00pm 24.3 SE 13 16 1013.0 - 20.4 Rain - - - - - -
30/11:30am 24.2 SE 14 16 1013.6 - 19.6 - - - - - - -
30/11:00am 24.3 SE 11 14 1014.3 - 18.8 - - - - - - -
30/10:30am 23.8 SE 10 12 1014.7 - 18.6 - - - - - - -
30/10:00am 23.2 SSE 10 13 1015.0 - 18.0 - - - - - - -
30/09:30am 23.0 SE 9 16 1015.3 - 17.6 - - - - - - -
30/09:00am 22.8 SSE 10 11 1015.0 - 27.8 Rain - - - - - -
30/08:30am 23.1 SE 9 11 1015.0 - 23.6 - - - - - - -
30/08:00am 23.2 ESE 11 14 1014.7 - 22.0 - - - - - - -
30/07:30am 23.1 ENE 8 18 1014.4 - 17.0 - - - - - - -
30/07:00am 22.9 WSW 4 6 1013.4 - 13.0 - - - - - - -
30/06:30am 22.7 CALM 0 0 1013.7 - 10.2 - - - - - - -
30/06:00am 22.6 NE 13 21 1013.8 - 8.0 Rain - - - - - -
30/05:30am 25.4 SE 12 15 1012.5 - 0.8 - - - - - - -
30/05:00am 25.2 SE 11 14 1012.1 - 0.8 - - - - - - -
30/04:30am 24.9 SE 11 13 1011.7 - 0.8 - - - - - - -
30/04:00am 24.6 SE 11 12 1011.1 - 0.8 - - - - - - -
30/03:30am 24.5 SSE 10 12 1011.5 - 0.8 - - - - - - -
30/03:00am 24.4 SSE 11 13 1011.8 - 0.8 - - - - - - -
30/02:30am 24.5 SSE 11 14 1012.1 - 0.8 - - - - - - -
30/02:00am 24.6 SSE 12 14 1012.1 - 0.8 - - - - - - -
30/01:30am 24.9 SE 12 15 1012.6 - 0.8 - - - - - - -
30/01:00am 24.9 SSE 12 17 1013.3 - 0.8 - - - - - - -
30/12:30am 26.0 SSE 11 15 1013.9 - 0.8 - - - - - - -
30/12:00am 25.8 SSE 10 13 1013.9 - 0.6 - - - - - - -
 
Date/Time
WST
Temp

°C
Wind Pressure Rain
since 9am
mm
Weather Cloud Vis
km
Sea
Height
m
Swell
Dir
 
Speed
knots
Gust
knots
hPa Trend Height
m
Period
s
Dir
29/11:30pm 25.5 SE 11 14 1014.1 - 0.6 - - - - - - -
29/11:00pm 26.1 ESE 11 14 1014.3 - 0.6 - - - - - - -
29/10:30pm 26.1 SE 13 17 1014.5 - 0.6 - - - - - - -
29/10:00pm 25.4 S 9 11 1014.5 - 0.6 - - - - - - -
29/09:30pm 25.8 ESE 8 11 1014.8 - 0.4 - - - - - - -
29/09:00pm 27.0 NE 14 19 1014.5 - 0.2 Rain - - - - - -
29/08:42pm 28.3 ENE 20 32 1013.8 - 0.0 - - - - - - -
29/08:31pm 28.7 E 15 26 1014.1 - 0.0 - - - - - - -
29/08:30pm 28.7 E 14 21 1014.1 - 0.0 - - - - - - -
29/08:00pm 29.0 E 15 19 1014.1 - 0.0 - - - - - - -
29/07:30pm 29.6 ENE 15 17 1013.6 - 0.0 - - - - - - -
29/07:00pm 29.1 NNW 3 5 1013.2 - 0.0 - - - - - - -
29/06:30pm 29.4 NW 6 8 1012.5 - 0.0 - - - - - - -
29/06:00pm 29.8 NNW 8 10 1011.8 - 0.0 - - - - - - -
29/05:30pm 30.8 NW 10 12 1011.4 - 0.0 - - - - - - -
29/05:00pm 31.2 NW 10 13 1011.0 - 0.0 - - - - - - -
29/04:30pm 31.2 NNW 7 9 1010.7 - 0.0 - - - - - - -
29/04:00pm 31.0 NNW 8 11 1010.7 - 0.0 - - - - - - -
29/03:30pm 31.3 NW 9 11 1010.9 - 0.0 - - - - - - -
29/03:00pm 32.2 NW 10 12 1011.0 - 0.0 - - - - - - -
29/02:30pm 33.5 NNW 11 14 1011.2 - 0.0 - - - - - - -
29/02:00pm 34.6 N 12 15 1011.3 - 0.0 - - - - - - -
29/01:30pm 34.3 NNE 11 15 1011.6 - 0.0 - - - - - - -
29/01:00pm 33.3 NNE 11 13 1011.6 - 0.0 - - - - - - -
29/12:30pm 31.9 NNE 12 16 1012.0 - 0.0 - - - - - - -
29/12:00pm 30.8 NNE 13 17 1012.6 - 0.0 - - - - - - -
29/11:30am 31.4 NNE 13 16 1012.9 - 0.0 - - - - - - -

Other Formats:

Comma delimited format used in spreadsheet applications
http://www.bom.gov.au/fwo/IDW60701/IDW60701.95305.axf

JavaScript Object Notation format (JSON) in row-major order
http://www.bom.gov.au/fwo/IDW60701/IDW60701.95305.json